sensor_id;sensor_type;location;lat;lon;timestamp;pressure;altitude;pressure_sealevel;temperature;humidity
56374;BME280;58212;47.034;7.376;2023-12-20T00:01:02;95686.06;;;1.66;92.77
56374;BME280;58212;47.034;7.376;2023-12-20T00:03:29;95692.28;;;1.65;93.10
56374;BME280;58212;47.034;7.376;2023-12-20T00:05:55;95690.97;;;1.69;93.02
56374;BME280;58212;47.034;7.376;2023-12-20T00:08:24;95686.03;;;1.74;93.14
56374;BME280;58212;47.034;7.376;2023-12-20T00:10:50;95679.03;;;1.74;93.08
56374;BME280;58212;47.034;7.376;2023-12-20T00:13:17;95699.09;;;1.66;93.14
56374;BME280;58212;47.034;7.376;2023-12-20T00:15:44;95719.03;;;1.59;93.52
56374;BME280;58212;47.034;7.376;2023-12-20T00:18:10;95706.47;;;1.62;93.61
56374;BME280;58212;47.034;7.376;2023-12-20T00:20:37;95699.75;;;1.68;93.59
56374;BME280;58212;47.034;7.376;2023-12-20T00:23:04;95693.66;;;1.36;93.88
56374;BME280;58212;47.034;7.376;2023-12-20T00:25:32;95692.97;;;1.51;94.92
56374;BME280;58212;47.034;7.376;2023-12-20T00:27:59;95669.44;;;1.67;94.53
56374;BME280;58212;47.034;7.376;2023-12-20T00:30:25;95664.22;;;1.67;93.69
56374;BME280;58212;47.034;7.376;2023-12-20T00:32:52;95672.03;;;1.75;93.28
56374;BME280;58212;47.034;7.376;2023-12-20T00:35:19;95686.22;;;1.72;93.75
56374;BME280;58212;47.034;7.376;2023-12-20T00:37:46;95674.81;;;1.65;93.60
56374;BME280;58212;47.034;7.376;2023-12-20T00:40:12;95648.69;;;1.73;93.42
56374;BME280;58212;47.034;7.376;2023-12-20T00:42:41;95636.28;;;1.83;93.41
56374;BME280;58212;47.034;7.376;2023-12-20T00:45:08;95618.81;;;2.07;93.29
56374;BME280;58212;47.034;7.376;2023-12-20T00:47:35;95623.16;;;2.14;92.92
56374;BME280;58212;47.034;7.376;2023-12-20T00:50:02;95622.19;;;2.15;92.73
56374;BME280;58212;47.034;7.376;2023-12-20T00:52:28;95640.50;;;2.07;92.98
56374;BME280;58212;47.034;7.376;2023-12-20T00:54:55;95651.44;;;1.80;92.86
56374;BME280;58212;47.034;7.376;2023-12-20T00:57:22;95657.59;;;1.56;93.79
56374;BME280;58212;47.034;7.376;2023-12-20T00:59:50;95678.81;;;1.53;94.44
56374;BME280;58212;47.034;7.376;2023-12-20T01:02:17;95677.66;;;1.47;93.87
56374;BME280;58212;47.034;7.376;2023-12-20T01:04:44;95672.28;;;1.49;93.77
56374;BME280;58212;47.034;7.376;2023-12-20T01:07:11;95674.31;;;1.70;93.87
56374;BME280;58212;47.034;7.376;2023-12-20T01:09:38;95673.78;;;1.82;93.67
56374;BME280;58212;47.034;7.376;2023-12-20T01:12:05;95663.78;;;1.94;94.05
56374;BME280;58212;47.034;7.376;2023-12-20T01:14:32;95676.13;;;2.00;94.04
56374;BME280;58212;47.034;7.376;2023-12-20T01:17:00;95661.34;;;2.15;94.42
56374;BME280;58212;47.034;7.376;2023-12-20T01:19:26;95656.75;;;2.17;94.38
56374;BME280;58212;47.034;7.376;2023-12-20T01:21:54;95655.25;;;2.23;94.05
56374;BME280;58212;47.034;7.376;2023-12-20T01:24:21;95673.66;;;2.29;93.92
56374;BME280;58212;47.034;7.376;2023-12-20T01:26:48;95675.22;;;2.38;94.54
56374;BME280;58212;47.034;7.376;2023-12-20T01:29:15;95670.97;;;2.37;94.35
56374;BME280;58212;47.034;7.376;2023-12-20T01:31:42;95675.03;;;2.40;94.83
56374;BME280;58212;47.034;7.376;2023-12-20T01:34:10;95674.69;;;2.43;94.33
56374;BME280;58212;47.034;7.376;2023-12-20T01:36:36;95682.16;;;2.46;95.06
56374;BME280;58212;47.034;7.376;2023-12-20T01:39:03;95677.41;;;2.50;94.66
56374;BME280;58212;47.034;7.376;2023-12-20T01:41:30;95681.03;;;2.49;95.20
56374;BME280;58212;47.034;7.376;2023-12-20T01:43:57;95669.66;;;2.41;95.48
56374;BME280;58212;47.034;7.376;2023-12-20T01:46:24;95680.00;;;2.50;95.56
56374;BME280;58212;47.034;7.376;2023-12-20T01:48:51;95676.38;;;2.59;95.46
56374;BME280;58212;47.034;7.376;2023-12-20T01:51:20;95684.50;;;2.64;94.84
56374;BME280;58212;47.034;7.376;2023-12-20T01:53:47;95681.16;;;2.70;95.03
56374;BME280;58212;47.034;7.376;2023-12-20T01:56:15;95676.47;;;2.65;94.93
56374;BME280;58212;47.034;7.376;2023-12-20T01:58:44;95679.19;;;2.72;94.72
56374;BME280;58212;47.034;7.376;2023-12-20T02:01:11;95684.69;;;2.77;94.37
56374;BME280;58212;47.034;7.376;2023-12-20T02:03:38;95689.94;;;2.77;94.58
56374;BME280;58212;47.034;7.376;2023-12-20T02:06:05;95672.25;;;2.79;94.92
56374;BME280;58212;47.034;7.376;2023-12-20T02:08:34;95676.16;;;2.83;94.54
56374;BME280;58212;47.034;7.376;2023-12-20T02:11:01;95674.34;;;2.83;95.01
56374;BME280;58212;47.034;7.376;2023-12-20T02:13:28;95664.56;;;2.85;94.69
56374;BME280;58212;47.034;7.376;2023-12-20T02:15:55;95672.19;;;2.87;95.07
56374;BME280;58212;47.034;7.376;2023-12-20T02:18:22;95672.94;;;2.95;94.73
56374;BME280;58212;47.034;7.376;2023-12-20T02:20:49;95668.88;;;2.93;94.59
56374;BME280;58212;47.034;7.376;2023-12-20T02:23:17;95674.66;;;3.03;94.11
56374;BME280;58212;47.034;7.376;2023-12-20T02:25:44;95672.16;;;3.10;94.32
56374;BME280;58212;47.034;7.376;2023-12-20T02:28:10;95674.41;;;3.13;94.15
56374;BME280;58212;47.034;7.376;2023-12-20T02:30:37;95667.81;;;3.17;93.58
56374;BME280;58212;47.034;7.376;2023-12-20T02:33:07;95660.97;;;3.30;92.10
56374;BME280;58212;47.034;7.376;2023-12-20T02:35:37;95668.03;;;3.44;91.64
56374;BME280;58212;47.034;7.376;2023-12-20T02:38:04;95676.94;;;3.35;92.60
56374;BME280;58212;47.034;7.376;2023-12-20T02:40:32;95673.34;;;3.51;92.01
56374;BME280;58212;47.034;7.376;2023-12-20T02:42:59;95668.19;;;3.58;91.67
56374;BME280;58212;47.034;7.376;2023-12-20T02:45:26;95678.66;;;3.58;92.15
56374;BME280;58212;47.034;7.376;2023-12-20T02:47:53;95676.50;;;3.47;92.03
56374;BME280;58212;47.034;7.376;2023-12-20T02:50:20;95663.41;;;3.47;92.84
56374;BME280;58212;47.034;7.376;2023-12-20T02:52:47;95657.72;;;3.58;91.96
56374;BME280;58212;47.034;7.376;2023-12-20T02:55:13;95661.69;;;3.54;92.75
56374;BME280;58212;47.034;7.376;2023-12-20T02:57:41;95655.84;;;3.52;92.92
56374;BME280;58212;47.034;7.376;2023-12-20T03:00:09;95657.56;;;3.59;92.71
56374;BME280;58212;47.034;7.376;2023-12-20T03:02:36;95653.47;;;3.57;93.08
56374;BME280;58212;47.034;7.376;2023-12-20T03:05:03;95645.00;;;3.69;92.36
56374;BME280;58212;47.034;7.376;2023-12-20T03:07:30;95638.94;;;3.69;92.88
56374;BME280;58212;47.034;7.376;2023-12-20T03:09:56;95650.38;;;3.68;92.93
56374;BME280;58212;47.034;7.376;2023-12-20T03:12:23;95653.44;;;3.71;93.05
56374;BME280;58212;47.034;7.376;2023-12-20T03:14:51;95658.31;;;3.74;92.57
56374;BME280;58212;47.034;7.376;2023-12-20T03:17:18;95653.91;;;3.75;92.71
56374;BME280;58212;47.034;7.376;2023-12-20T03:19:46;95655.91;;;3.73;93.20
56374;BME280;58212;47.034;7.376;2023-12-20T03:22:12;95652.53;;;3.79;93.21
56374;BME280;58212;47.034;7.376;2023-12-20T03:24:39;95654.09;;;3.73;93.73
56374;BME280;58212;47.034;7.376;2023-12-20T03:27:06;95648.66;;;3.75;93.82
56374;BME280;58212;47.034;7.376;2023-12-20T03:29:33;95654.78;;;3.82;94.05
56374;BME280;58212;47.034;7.376;2023-12-20T03:32:02;95656.69;;;3.88;94.07
56374;BME280;58212;47.034;7.376;2023-12-20T03:34:28;95646.91;;;3.97;94.13
56374;BME280;58212;47.034;7.376;2023-12-20T03:36:55;95640.88;;;3.96;93.74
56374;BME280;58212;47.034;7.376;2023-12-20T03:39:22;95641.13;;;4.01;93.78
56374;BME280;58212;47.034;7.376;2023-12-20T03:41:49;95654.41;;;4.00;93.83
56374;BME280;58212;47.034;7.376;2023-12-20T03:44:16;95658.56;;;3.94;94.41
56374;BME280;58212;47.034;7.376;2023-12-20T03:46:42;95664.72;;;3.86;94.97
56374;BME280;58212;47.034;7.376;2023-12-20T03:49:12;95669.25;;;3.63;95.23
56374;BME280;58212;47.034;7.376;2023-12-20T03:51:39;95672.16;;;3.54;95.13
56374;BME280;58212;47.034;7.376;2023-12-20T03:54:05;95666.19;;;3.45;95.12
56374;BME280;58212;47.034;7.376;2023-12-20T03:56:32;95658.25;;;3.38;95.19
56374;BME280;58212;47.034;7.376;2023-12-20T03:58:59;95658.34;;;3.45;95.72
56374;BME280;58212;47.034;7.376;2023-12-20T04:01:25;95658.91;;;3.55;95.70
56374;BME280;58212;47.034;7.376;2023-12-20T04:03:52;95656.16;;;3.63;96.22
56374;BME280;58212;47.034;7.376;2023-12-20T04:06:20;95661.56;;;3.76;96.10
56374;BME280;58212;47.034;7.376;2023-12-20T04:08:47;95656.41;;;3.83;95.80
56374;BME280;58212;47.034;7.376;2023-12-20T04:11:14;95656.16;;;3.92;96.10
56374;BME280;58212;47.034;7.376;2023-12-20T04:13:40;95658.38;;;3.96;95.63
56374;BME280;58212;47.034;7.376;2023-12-20T04:16:07;95662.97;;;3.93;95.20
56374;BME280;58212;47.034;7.376;2023-12-20T04:18:34;95662.97;;;3.93;95.49
56374;BME280;58212;47.034;7.376;2023-12-20T04:21:02;95666.63;;;3.92;95.92
56374;BME280;58212;47.034;7.376;2023-12-20T04:23:30;95672.84;;;3.91;95.60
56374;BME280;58212;47.034;7.376;2023-12-20T04:25:56;95677.41;;;4.04;95.80
56374;BME280;58212;47.034;7.376;2023-12-20T04:28:23;95680.84;;;4.05;95.50
56374;BME280;58212;47.034;7.376;2023-12-20T04:30:50;95683.81;;;4.02;95.64
56374;BME280;58212;47.034;7.376;2023-12-20T04:33:17;95682.59;;;3.83;95.71
56374;BME280;58212;47.034;7.376;2023-12-20T04:35:44;95691.44;;;3.53;96.02
56374;BME280;58212;47.034;7.376;2023-12-20T04:38:11;95699.59;;;3.43;95.84
56374;BME280;58212;47.034;7.376;2023-12-20T04:40:39;95708.97;;;3.37;96.17
56374;BME280;58212;47.034;7.376;2023-12-20T04:43:06;95706.16;;;3.24;96.70
56374;BME280;58212;47.034;7.376;2023-12-20T04:45:34;95704.06;;;3.20;96.64
56374;BME280;58212;47.034;7.376;2023-12-20T04:48:01;95703.97;;;3.13;97.07
56374;BME280;58212;47.034;7.376;2023-12-20T04:50:28;95702.72;;;3.24;96.74
56374;BME280;58212;47.034;7.376;2023-12-20T04:52:54;95693.34;;;3.29;97.15
56374;BME280;58212;47.034;7.376;2023-12-20T04:55:21;95677.22;;;3.26;96.85
56374;BME280;58212;47.034;7.376;2023-12-20T04:57:49;95696.59;;;3.46;96.91
56374;BME280;58212;47.034;7.376;2023-12-20T05:00:16;95688.94;;;3.44;96.91
56374;BME280;58212;47.034;7.376;2023-12-20T05:02:43;95687.03;;;3.68;97.09
56374;BME280;58212;47.034;7.376;2023-12-20T05:05:10;95694.16;;;3.88;97.19
56374;BME280;58212;47.034;7.376;2023-12-20T05:07:37;95689.22;;;4.00;96.70
56374;BME280;58212;47.034;7.376;2023-12-20T05:10:04;95681.75;;;3.97;96.41
56374;BME280;58212;47.034;7.376;2023-12-20T05:12:31;95696.97;;;4.08;95.84
56374;BME280;58212;47.034;7.376;2023-12-20T05:14:59;95701.16;;;4.03;96.26
56374;BME280;58212;47.034;7.376;2023-12-20T05:17:26;95712.06;;;4.06;95.54
56374;BME280;58212;47.034;7.376;2023-12-20T05:19:53;95713.06;;;4.05;95.73
56374;BME280;58212;47.034;7.376;2023-12-20T05:22:20;95712.69;;;4.08;95.54
56374;BME280;58212;47.034;7.376;2023-12-20T05:24:47;95718.31;;;4.05;95.70
56374;BME280;58212;47.034;7.376;2023-12-20T05:27:13;95722.78;;;4.11;95.75
56374;BME280;58212;47.034;7.376;2023-12-20T05:29:40;95729.28;;;4.15;95.64
56374;BME280;58212;47.034;7.376;2023-12-20T05:32:08;95736.78;;;4.18;95.02
56374;BME280;58212;47.034;7.376;2023-12-20T05:34:35;95741.41;;;4.16;95.39
56374;BME280;58212;47.034;7.376;2023-12-20T05:37:02;95752.97;;;4.07;95.36
56374;BME280;58212;47.034;7.376;2023-12-20T05:39:29;95746.28;;;4.05;95.87
56374;BME280;58212;47.034;7.376;2023-12-20T05:41:56;95750.09;;;4.02;95.84
56374;BME280;58212;47.034;7.376;2023-12-20T05:44:23;95751.97;;;3.93;96.43
56374;BME280;58212;47.034;7.376;2023-12-20T05:46:50;95746.75;;;3.93;96.94
56374;BME280;58212;47.034;7.376;2023-12-20T05:49:18;95739.25;;;4.05;96.31
56374;BME280;58212;47.034;7.376;2023-12-20T05:51:44;95727.88;;;3.98;96.50
56374;BME280;58212;47.034;7.376;2023-12-20T05:54:11;95737.91;;;3.94;96.88
56374;BME280;58212;47.034;7.376;2023-12-20T05:56:38;95736.94;;;3.96;97.04
56374;BME280;58212;47.034;7.376;2023-12-20T05:59:05;95728.06;;;3.97;96.93
56374;BME280;58212;47.034;7.376;2023-12-20T06:01:32;95733.56;;;4.02;96.50
56374;BME280;58212;47.034;7.376;2023-12-20T06:03:58;95742.84;;;4.04;96.49
56374;BME280;58212;47.034;7.376;2023-12-20T06:06:26;95742.84;;;4.04;96.56
56374;BME280;58212;47.034;7.376;2023-12-20T06:08:53;95752.97;;;4.07;95.81
56374;BME280;58212;47.034;7.376;2023-12-20T06:11:20;95758.22;;;4.07;96.20
56374;BME280;58212;47.034;7.376;2023-12-20T06:13:47;95762.19;;;4.03;95.86
56374;BME280;58212;47.034;7.376;2023-12-20T06:16:14;95758.94;;;4.01;96.06
56374;BME280;58212;47.034;7.376;2023-12-20T06:18:41;95765.28;;;3.92;96.66
56374;BME280;58212;47.034;7.376;2023-12-20T06:21:08;95770.50;;;3.92;96.79
56374;BME280;58212;47.034;7.376;2023-12-20T06:23:39;95772.84;;;3.87;96.83
56374;BME280;58212;47.034;7.376;2023-12-20T06:26:06;95776.44;;;3.86;97.21
56374;BME280;58212;47.034;7.376;2023-12-20T06:28:33;95773.66;;;3.87;97.08
56374;BME280;58212;47.034;7.376;2023-12-20T06:31:00;95766.25;;;3.91;96.83
56374;BME280;58212;47.034;7.376;2023-12-20T06:33:27;95769.63;;;3.85;97.16
56374;BME280;58212;47.034;7.376;2023-12-20T06:35:54;95766.63;;;3.88;97.17
56374;BME280;58212;47.034;7.376;2023-12-20T06:38:21;95776.34;;;3.94;97.36
56374;BME280;58212;47.034;7.376;2023-12-20T06:40:49;95772.75;;;3.80;97.55
56374;BME280;58212;47.034;7.376;2023-12-20T06:43:16;95771.13;;;3.79;97.29
56374;BME280;58212;47.034;7.376;2023-12-20T06:45:42;95768.88;;;3.76;97.61
56374;BME280;58212;47.034;7.376;2023-12-20T06:48:09;95769.31;;;3.80;97.35
56374;BME280;58212;47.034;7.376;2023-12-20T06:50:38;95762.28;;;3.80;97.69
56374;BME280;58212;47.034;7.376;2023-12-20T06:53:05;95768.22;;;3.74;97.54
56374;BME280;58212;47.034;7.376;2023-12-20T06:55:33;95776.38;;;3.79;98.06
56374;BME280;58212;47.034;7.376;2023-12-20T06:58:02;95774.84;;;3.85;97.89
56374;BME280;58212;47.034;7.376;2023-12-20T07:00:29;95771.66;;;3.89;97.54
56374;BME280;58212;47.034;7.376;2023-12-20T07:02:56;95768.13;;;3.97;97.52
56374;BME280;58212;47.034;7.376;2023-12-20T07:05:24;95766.16;;;3.99;96.61
56374;BME280;58212;47.034;7.376;2023-12-20T07:07:52;95769.41;;;4.01;97.07
56374;BME280;58212;47.034;7.376;2023-12-20T07:10:19;95771.66;;;3.89;96.87
56374;BME280;58212;47.034;7.376;2023-12-20T07:12:45;95780.34;;;3.90;96.71
56374;BME280;58212;47.034;7.376;2023-12-20T07:15:15;95780.53;;;3.88;96.91
56374;BME280;58212;47.034;7.376;2023-12-20T07:17:42;95780.53;;;3.88;96.77
56374;BME280;58212;47.034;7.376;2023-12-20T07:20:09;95786.56;;;3.89;96.88
56374;BME280;58212;47.034;7.376;2023-12-20T07:22:37;95780.88;;;3.85;96.79
56374;BME280;58212;47.034;7.376;2023-12-20T07:25:05;95774.56;;;3.80;96.88
56374;BME280;58212;47.034;7.376;2023-12-20T07:27:32;95780.97;;;3.77;96.82
56374;BME280;58212;47.034;7.376;2023-12-20T07:29:58;95783.41;;;3.79;96.88
56374;BME280;58212;47.034;7.376;2023-12-20T07:32:26;95793.63;;;3.74;97.01
56374;BME280;58212;47.034;7.376;2023-12-20T07:34:53;95799.53;;;3.68;97.04
56374;BME280;58212;47.034;7.376;2023-12-20T07:37:20;95802.97;;;3.68;96.68
56374;BME280;58212;47.034;7.376;2023-12-20T07:39:47;95812.38;;;3.63;97.09
56374;BME280;58212;47.034;7.376;2023-12-20T07:42:14;95805.78;;;3.67;97.25
56374;BME280;58212;47.034;7.376;2023-12-20T07:44:40;95803.19;;;3.67;96.98
56374;BME280;58212;47.034;7.376;2023-12-20T07:47:07;95817.03;;;3.67;97.24
56374;BME280;58212;47.034;7.376;2023-12-20T07:49:35;95822.03;;;3.62;96.94
56374;BME280;58212;47.034;7.376;2023-12-20T07:52:02;95822.13;;;3.69;96.88
56374;BME280;58212;47.034;7.376;2023-12-20T07:54:29;95820.84;;;3.65;96.81
56374;BME280;58212;47.034;7.376;2023-12-20T07:56:57;95826.34;;;3.55;97.29
56374;BME280;58212;47.034;7.376;2023-12-20T07:59:23;95813.81;;;3.65;97.00
56374;BME280;58212;47.034;7.376;2023-12-20T08:01:50;95810.00;;;3.68;97.36
56374;BME280;58212;47.034;7.376;2023-12-20T08:04:17;95810.22;;;3.66;97.48
56374;BME280;58212;47.034;7.376;2023-12-20T08:06:45;95817.50;;;3.71;96.93
56374;BME280;58212;47.034;7.376;2023-12-20T08:09:12;95821.69;;;3.80;97.12
56374;BME280;58212;47.034;7.376;2023-12-20T08:11:38;95818.88;;;3.81;97.43
56374;BME280;58212;47.034;7.376;2023-12-20T08:14:05;95836.94;;;3.76;96.96
56374;BME280;58212;47.034;7.376;2023-12-20T08:16:32;95837.66;;;3.85;97.01
56374;BME280;58212;47.034;7.376;2023-12-20T08:18:58;95850.66;;;3.93;96.93
56374;BME280;58212;47.034;7.376;2023-12-20T08:21:25;95850.75;;;3.85;96.84
56374;BME280;58212;47.034;7.376;2023-12-20T08:23:54;95850.47;;;3.94;96.96
56374;BME280;58212;47.034;7.376;2023-12-20T08:26:21;95842.72;;;4.01;96.85
56374;BME280;58212;47.034;7.376;2023-12-20T08:28:49;95854.28;;;4.07;96.81
56374;BME280;58212;47.034;7.376;2023-12-20T08:31:16;95850.84;;;4.06;96.71
56374;BME280;58212;47.034;7.376;2023-12-20T08:33:43;95850.66;;;4.08;96.96
56374;BME280;58212;47.034;7.376;2023-12-20T08:36:10;95850.19;;;4.04;96.52
56374;BME280;58212;47.034;7.376;2023-12-20T08:38:37;95845.25;;;4.09;96.69
56374;BME280;58212;47.034;7.376;2023-12-20T08:41:07;95845.63;;;4.06;96.84
56374;BME280;58212;47.034;7.376;2023-12-20T08:43:34;95849.22;;;4.05;96.96
56374;BME280;58212;47.034;7.376;2023-12-20T08:46:01;95844.25;;;4.10;96.90
56374;BME280;58212;47.034;7.376;2023-12-20T08:48:28;95839.84;;;4.11;97.00
56374;BME280;58212;47.034;7.376;2023-12-20T08:50:55;95844.88;;;4.12;96.61
56374;BME280;58212;47.034;7.376;2023-12-20T08:53:22;95835.75;;;4.08;96.52
56374;BME280;58212;47.034;7.376;2023-12-20T08:55:48;95849.75;;;4.15;96.83
56374;BME280;58212;47.034;7.376;2023-12-20T08:58:16;95845.41;;;4.22;96.79
56374;BME280;58212;47.034;7.376;2023-12-20T09:00:43;95850.94;;;4.27;96.50
56374;BME280;58212;47.034;7.376;2023-12-20T09:03:10;95854.44;;;4.34;96.49
56374;BME280;58212;47.034;7.376;2023-12-20T09:05:36;95867.09;;;4.46;95.75
56374;BME280;58212;47.034;7.376;2023-12-20T09:08:04;95862.94;;;4.51;95.23
56374;BME280;58212;47.034;7.376;2023-12-20T09:10:31;95859.75;;;4.56;94.85
56374;BME280;58212;47.034;7.376;2023-12-20T09:12:57;95845.03;;;4.55;95.37
56374;BME280;58212;47.034;7.376;2023-12-20T09:15:26;95843.13;;;4.63;95.00
56374;BME280;58212;47.034;7.376;2023-12-20T09:17:54;95836.72;;;4.66;94.76
56374;BME280;58212;47.034;7.376;2023-12-20T09:20:21;95833.44;;;4.64;94.77
56374;BME280;58212;47.034;7.376;2023-12-20T09:22:48;95831.19;;;4.61;94.94
56374;BME280;58212;47.034;7.376;2023-12-20T09:25:15;95836.16;;;4.56;94.77
56374;BME280;58212;47.034;7.376;2023-12-20T09:27:43;95840.88;;;4.60;94.60
56374;BME280;58212;47.034;7.376;2023-12-20T09:30:10;95845.38;;;4.66;94.32
56374;BME280;58212;47.034;7.376;2023-12-20T09:32:38;95837.94;;;4.70;94.04
56374;BME280;58212;47.034;7.376;2023-12-20T09:35:05;95840.91;;;4.81;93.96
56374;BME280;58212;47.034;7.376;2023-12-20T09:37:34;95837.56;;;4.87;93.46
56374;BME280;58212;47.034;7.376;2023-12-20T09:40:01;95840.81;;;5.32;92.87
56374;BME280;58212;47.034;7.376;2023-12-20T09:42:35;95842.94;;;5.22;91.97
56374;BME280;58212;47.034;7.376;2023-12-20T09:45:08;95848.56;;;4.98;91.77
56374;BME280;58212;47.034;7.376;2023-12-20T09:47:35;95850.03;;;5.07;92.86
56374;BME280;58212;47.034;7.376;2023-12-20T09:50:05;95854.63;;;5.19;92.93
56374;BME280;58212;47.034;7.376;2023-12-20T09:52:32;95852.53;;;5.15;92.85
56374;BME280;58212;47.034;7.376;2023-12-20T09:55:01;95849.69;;;5.10;92.29
56374;BME280;58212;47.034;7.376;2023-12-20T09:57:31;95853.69;;;5.06;92.27
56374;BME280;58212;47.034;7.376;2023-12-20T09:59:58;95847.25;;;5.08;92.53
56374;BME280;58212;47.034;7.376;2023-12-20T10:02:25;95852.16;;;5.18;92.49
56374;BME280;58212;47.034;7.376;2023-12-20T10:04:54;95848.94;;;5.16;92.25
56374;BME280;58212;47.034;7.376;2023-12-20T10:07:22;95845.00;;;5.05;92.23
56374;BME280;58212;47.034;7.376;2023-12-20T10:09:51;95839.69;;;4.99;92.29
56374;BME280;58212;47.034;7.376;2023-12-20T10:12:20;95837.94;;;5.06;92.35
56374;BME280;58212;47.034;7.376;2023-12-20T10:14:47;95834.75;;;5.31;92.12
56374;BME280;58212;47.034;7.376;2023-12-20T10:17:14;95834.75;;;5.53;91.03
56374;BME280;58212;47.034;7.376;2023-12-20T10:19:42;95818.56;;;5.77;90.10
56374;BME280;58212;47.034;7.376;2023-12-20T10:22:10;95820.69;;;5.88;88.03
56374;BME280;58212;47.034;7.376;2023-12-20T10:24:39;95811.00;;;5.88;88.53
56374;BME280;58212;47.034;7.376;2023-12-20T10:27:08;95813.94;;;6.07;88.65
56374;BME280;58212;47.034;7.376;2023-12-20T10:29:36;95812.13;;;6.07;86.41
56374;BME280;58212;47.034;7.376;2023-12-20T10:32:24;95806.47;;;6.10;87.80
56374;BME280;58212;47.034;7.376;2023-12-20T10:34:51;95810.44;;;6.34;87.65
56374;BME280;58212;47.034;7.376;2023-12-20T10:37:19;95808.41;;;6.29;87.27
56374;BME280;58212;47.034;7.376;2023-12-20T10:39:50;95796.09;;;6.36;87.05
56374;BME280;58212;47.034;7.376;2023-12-20T10:42:18;95789.03;;;6.37;85.78
56374;BME280;58212;47.034;7.376;2023-12-20T10:44:46;95781.56;;;6.41;86.04
56374;BME280;58212;47.034;7.376;2023-12-20T10:47:13;95772.47;;;6.50;85.69
56374;BME280;58212;47.034;7.376;2023-12-20T10:49:40;95778.00;;;6.61;84.82
56374;BME280;58212;47.034;7.376;2023-12-20T10:52:09;95779.59;;;6.49;83.84
56374;BME280;58212;47.034;7.376;2023-12-20T10:54:35;95781.03;;;6.65;84.53
56374;BME280;58212;47.034;7.376;2023-12-20T10:57:05;95775.81;;;6.71;84.63
56374;BME280;58212;47.034;7.376;2023-12-20T10:59:33;95766.06;;;6.65;82.86
56374;BME280;58212;47.034;7.376;2023-12-20T11:02:02;95761.63;;;6.59;82.37
56374;BME280;58212;47.034;7.376;2023-12-20T11:04:37;95770.25;;;6.47;81.67
56374;BME280;58212;47.034;7.376;2023-12-20T11:07:12;95766.44;;;6.49;82.87
56374;BME280;58212;47.034;7.376;2023-12-20T11:09:47;95758.72;;;6.41;81.42
56374;BME280;58212;47.034;7.376;2023-12-20T11:12:21;95763.19;;;6.54;82.31
56374;BME280;58212;47.034;7.376;2023-12-20T11:14:53;95750.69;;;6.56;81.22
56374;BME280;58212;47.034;7.376;2023-12-20T11:17:21;95751.03;;;6.46;80.90
56374;BME280;58212;47.034;7.376;2023-12-20T11:20:09;95756.94;;;6.48;81.22
56374;BME280;58212;47.034;7.376;2023-12-20T11:22:37;95757.47;;;6.30;80.74
56374;BME280;58212;47.034;7.376;2023-12-20T11:25:08;95764.16;;;6.39;81.06
56374;BME280;58212;47.034;7.376;2023-12-20T11:27:40;95754.69;;;6.45;80.44
56374;BME280;58212;47.034;7.376;2023-12-20T11:30:08;95763.81;;;6.56;80.91
56374;BME280;58212;47.034;7.376;2023-12-20T11:32:40;95758.56;;;6.56;80.79
56374;BME280;58212;47.034;7.376;2023-12-20T11:35:18;95758.16;;;6.52;80.50
56374;BME280;58212;47.034;7.376;2023-12-20T11:37:46;95754.72;;;6.52;80.66
56374;BME280;58212;47.034;7.376;2023-12-20T11:40:15;95756.84;;;6.28;80.38
56374;BME280;58212;47.034;7.376;2023-12-20T11:42:44;95752.97;;;6.24;81.09
56374;BME280;58212;47.034;7.376;2023-12-20T11:45:14;95744.13;;;6.32;81.29
56374;BME280;58212;47.034;7.376;2023-12-20T11:47:43;95751.59;;;6.35;80.50
56374;BME280;58212;47.034;7.376;2023-12-20T11:50:11;95744.13;;;6.32;81.04
56374;BME280;58212;47.034;7.376;2023-12-20T11:52:38;95737.19;;;6.18;80.21
56374;BME280;58212;47.034;7.376;2023-12-20T11:55:05;95744.91;;;6.19;80.48
56374;BME280;58212;47.034;7.376;2023-12-20T11:57:34;95752.13;;;6.11;79.82
56374;BME280;58212;47.034;7.376;2023-12-20T12:00:02;95752.13;;;6.11;80.70
56374;BME280;58212;47.034;7.376;2023-12-20T12:02:37;95758.59;;;6.15;81.89
56374;BME280;58212;47.034;7.376;2023-12-20T12:05:05;95747.53;;;6.19;81.33
56374;BME280;58212;47.034;7.376;2023-12-20T12:07:33;95743.50;;;6.23;81.87
56374;BME280;58212;47.034;7.376;2023-12-20T12:10:00;95738.03;;;6.25;81.34
56374;BME280;58212;47.034;7.376;2023-12-20T12:12:27;95736.63;;;6.29;82.32
56374;BME280;58212;47.034;7.376;2023-12-20T12:14:55;95728.56;;;6.30;81.33
56374;BME280;58212;47.034;7.376;2023-12-20T12:17:24;95732.19;;;6.29;81.74
56374;BME280;58212;47.034;7.376;2023-12-20T12:20:02;95719.06;;;6.29;79.83
56374;BME280;58212;47.034;7.376;2023-12-20T12:22:29;95724.50;;;6.28;79.83
56374;BME280;58212;47.034;7.376;2023-12-20T12:24:59;95720.22;;;6.20;78.28
56374;BME280;58212;47.034;7.376;2023-12-20T12:27:27;95722.25;;;6.25;78.15
56374;BME280;58212;47.034;7.376;2023-12-20T12:30:00;95734.19;;;6.27;76.84
56374;BME280;58212;47.034;7.376;2023-12-20T12:32:30;95740.69;;;6.31;76.60
56374;BME280;58212;47.034;7.376;2023-12-20T12:34:57;95749.41;;;6.38;77.58
56374;BME280;58212;47.034;7.376;2023-12-20T12:37:24;95741.13;;;6.42;78.71
56374;BME280;58212;47.034;7.376;2023-12-20T12:39:53;95742.69;;;6.29;79.13
56374;BME280;58212;47.034;7.376;2023-12-20T12:42:20;95743.53;;;6.30;79.50
56374;BME280;58212;47.034;7.376;2023-12-20T12:44:47;95752.16;;;6.17;79.87
56374;BME280;58212;47.034;7.376;2023-12-20T12:47:13;95750.69;;;6.08;80.02
56374;BME280;58212;47.034;7.376;2023-12-20T12:49:42;95755.25;;;5.86;80.56
56374;BME280;58212;47.034;7.376;2023-12-20T12:52:08;95763.63;;;5.75;78.82
56374;BME280;58212;47.034;7.376;2023-12-20T12:54:35;95758.59;;;5.80;79.49
56374;BME280;58212;47.034;7.376;2023-12-20T12:57:03;95764.41;;;6.04;78.91
56374;BME280;58212;47.034;7.376;2023-12-20T12:59:30;95771.16;;;5.85;79.25
56374;BME280;58212;47.034;7.376;2023-12-20T13:01:56;95769.69;;;5.76;78.65
56374;BME280;58212;47.034;7.376;2023-12-20T13:04:23;95766.34;;;5.61;78.57
56374;BME280;58212;47.034;7.376;2023-12-20T13:06:52;95765.19;;;5.70;78.87
56374;BME280;58212;47.034;7.376;2023-12-20T13:09:18;95763.81;;;5.74;78.09
56374;BME280;58212;47.034;7.376;2023-12-20T13:11:45;95762.25;;;5.79;78.53